createdAt,value
2019-01-21T00:04:38.584Z,14.51
2019-01-21T00:10:33.563Z,13.33
2019-01-21T00:16:28.588Z,13.17
2019-01-21T00:22:23.567Z,13.48
2019-01-21T00:28:20.060Z,9.68
2019-01-21T00:34:13.596Z,8.73
2019-01-21T00:40:08.581Z,10.74
2019-01-21T00:46:03.594Z,10.4
2019-01-21T00:51:58.597Z,9.03
2019-01-21T00:57:53.592Z,8.02
2019-01-21T01:03:48.599Z,8.83
2019-01-21T01:09:43.606Z,8.6
2019-01-21T01:15:38.591Z,5.77
2019-01-21T01:21:33.645Z,5.15
2019-01-21T01:27:28.609Z,3.78
2019-01-21T01:33:23.637Z,3.85
2019-01-21T01:39:18.603Z,3.76
2019-01-21T01:45:13.625Z,3.6
2019-01-21T01:51:08.669Z,3.85
2019-01-21T01:57:03.655Z,4.23
2019-01-21T02:02:58.641Z,3.33
2019-01-21T02:08:53.659Z,3.21
2019-01-21T02:14:48.635Z,3.72
2019-01-21T02:20:43.634Z,3.63
2019-01-21T02:26:38.693Z,3.6
2019-01-21T02:32:33.645Z,3.47
2019-01-21T02:38:28.675Z,3.3
2019-01-21T02:44:23.648Z,3.34
2019-01-21T02:50:18.654Z,3.05
2019-01-21T02:56:13.683Z,4.04
2019-01-21T03:02:08.668Z,3.4
2019-01-21T03:08:03.688Z,2.87
2019-01-21T03:13:58.675Z,3.08
2019-01-21T03:19:53.716Z,3
2019-01-21T03:25:48.701Z,2.97
2019-01-21T03:31:43.696Z,3.01
2019-01-21T03:37:38.674Z,3.47
2019-01-21T03:43:33.678Z,3.43
2019-01-21T03:49:28.696Z,4.35
2019-01-21T03:55:23.687Z,3.97
2019-01-21T04:01:18.703Z,4.71
2019-01-21T04:07:13.710Z,3.66
2019-01-21T04:13:08.699Z,3.92
2019-01-21T04:19:03.695Z,3.83
2019-01-21T04:24:58.690Z,3.94
2019-01-21T04:30:53.698Z,3.95
2019-01-21T04:36:48.756Z,4.4
2019-01-21T04:42:43.721Z,3.4
2019-01-21T04:48:38.718Z,4
2019-01-21T04:54:33.717Z,4.54
2019-01-21T05:00:28.728Z,4.2
2019-01-21T05:06:23.737Z,3.36
2019-01-21T05:12:18.733Z,3.83
2019-01-21T05:18:13.758Z,3.35
2019-01-21T05:24:08.712Z,3.32
2019-01-21T05:30:03.742Z,3.65
2019-01-21T05:35:58.734Z,2.54
2019-01-21T05:41:53.720Z,2.26
2019-01-21T05:47:48.762Z,2.47
2019-01-21T05:53:43.742Z,1.92
2019-01-21T05:59:38.800Z,2.98
2019-01-21T06:05:33.777Z,3.31
2019-01-21T06:11:28.746Z,2.43
2019-01-21T06:17:23.769Z,2.54
2019-01-21T06:23:18.766Z,2.3
2019-01-21T06:29:13.755Z,2.86
2019-01-21T06:35:08.780Z,2.4
2019-01-21T06:41:03.807Z,2.61
2019-01-21T06:46:58.765Z,1.95
2019-01-21T06:52:53.808Z,1.93
2019-01-21T06:58:48.830Z,2.05
2019-01-21T07:04:43.790Z,2.27
2019-01-21T07:10:38.776Z,4.99
2019-01-21T07:16:33.773Z,2.02
2019-01-21T07:22:28.797Z,1.57
2019-01-21T07:28:23.787Z,3.06
2019-01-21T07:34:18.791Z,2.46
2019-01-21T07:40:13.800Z,1.96
2019-01-21T07:46:08.811Z,3.57
2019-01-21T07:52:03.810Z,2.76
2019-01-21T07:57:58.823Z,1.64
2019-01-21T08:03:53.810Z,2.08
2019-01-21T08:09:48.823Z,2
2019-01-21T08:15:43.822Z,2.4
2019-01-21T08:21:38.823Z,4.15
2019-01-21T08:27:33.808Z,2.67
2019-01-21T08:33:28.825Z,2.83
2019-01-21T08:39:23.830Z,3.16
2019-01-21T08:45:18.833Z,2.93
2019-01-21T08:51:13.840Z,3.3
2019-01-21T08:57:08.843Z,2.79
2019-01-21T09:03:03.866Z,5.09
2019-01-21T09:08:58.845Z,3.4
2019-01-21T09:14:53.892Z,4.25
2019-01-21T09:20:48.847Z,3.18
2019-01-21T09:26:43.871Z,4.13
2019-01-21T09:32:38.875Z,3.7
2019-01-21T09:38:33.864Z,4.1
2019-01-21T09:44:28.871Z,4.12
2019-01-21T09:50:23.873Z,3.03
2019-01-21T09:56:18.870Z,2.96
2019-01-21T10:02:13.850Z,4.17
2019-01-21T10:08:08.890Z,2.97
2019-01-21T10:14:03.870Z,3.73
2019-01-21T10:19:58.892Z,4.04
2019-01-21T10:25:53.910Z,3.23
2019-01-21T10:31:48.888Z,2.94
2019-01-21T10:37:43.868Z,4.31
2019-01-21T10:43:38.882Z,3.42
2019-01-21T10:49:33.898Z,3.63
2019-01-21T10:55:28.876Z,3.09
2019-01-21T11:01:23.905Z,3.72
2019-01-21T11:07:18.912Z,3.57
2019-01-21T11:13:13.889Z,4.5
2019-01-21T11:19:08.941Z,4.83
2019-01-21T11:25:03.915Z,3.36
2019-01-21T11:30:58.920Z,4.02
2019-01-21T11:36:53.901Z,4.3
2019-01-21T11:42:48.920Z,3.75
2019-01-21T11:48:43.922Z,4.6
2019-01-21T11:54:38.934Z,4.27
2019-01-21T12:00:33.927Z,4.82
2019-01-21T12:06:28.960Z,4.99
2019-01-21T12:12:23.979Z,4.84
2019-01-21T12:18:18.933Z,6.05
2019-01-21T12:24:13.955Z,8.41
2019-01-21T12:30:08.960Z,5.99
2019-01-21T12:36:03.978Z,5.22
2019-01-21T12:41:58.976Z,4.93
2019-01-21T12:47:54.036Z,4.7
2019-01-21T12:53:48.975Z,7.1
2019-01-21T12:59:43.968Z,6.13
2019-01-21T13:05:38.983Z,5.37
2019-01-21T13:11:33.952Z,4.06
2019-01-21T13:17:28.960Z,5.3
2019-01-21T13:23:23.966Z,6.18
2019-01-21T13:29:18.968Z,7.42
2019-01-21T13:35:13.978Z,6.67
2019-01-21T13:41:08.997Z,7.12
2019-01-21T13:47:03.966Z,6.8
2019-01-21T13:52:58.973Z,7
2019-01-21T13:58:53.984Z,7.62
2019-01-21T14:04:49.030Z,7.37
2019-01-21T14:10:44.100Z,6.3
2019-01-21T14:16:38.988Z,7.58
2019-01-21T14:22:34.022Z,5.11
2019-01-21T14:28:28.988Z,7.11
2019-01-21T14:34:24.015Z,6.61
2019-01-21T14:40:19.023Z,5.17
2019-01-21T14:46:14.020Z,6.36
2019-01-21T14:52:09.052Z,7.05
2019-01-21T14:58:04.081Z,7.67
2019-01-21T15:03:59.038Z,6.69
2019-01-21T15:09:54.100Z,6.96
2019-01-21T15:15:49.026Z,7.02
2019-01-21T15:21:44.054Z,6.27
2019-01-21T15:27:39.088Z,6.08
2019-01-21T15:33:34.071Z,5.74
2019-01-21T15:39:29.073Z,6.44
2019-01-21T15:45:24.081Z,6.52
2019-01-21T15:51:19.046Z,5.34
2019-01-21T15:57:14.077Z,6.36
2019-01-21T16:03:09.059Z,6.4
2019-01-21T16:09:04.082Z,6.65
2019-01-21T16:14:59.061Z,7.56
2019-01-21T16:20:54.063Z,5.72
2019-01-21T16:26:49.079Z,7.49
2019-01-21T16:32:44.068Z,5.27
2019-01-21T16:38:39.083Z,4.52
2019-01-21T16:44:34.061Z,6.02
2019-01-21T16:50:29.062Z,5.77
2019-01-21T16:56:24.094Z,4.69
2019-01-21T17:02:19.081Z,4.27
2019-01-21T17:08:14.087Z,4.93
2019-01-21T17:14:09.118Z,5.05
2019-01-21T17:20:04.106Z,3.97
2019-01-21T17:25:59.129Z,3.76
2019-01-21T17:31:54.106Z,3.34
2019-01-21T17:37:49.100Z,6.82
2019-01-21T17:43:44.130Z,4.09
2019-01-21T17:49:39.130Z,3.79
2019-01-21T17:55:34.125Z,3.46
2019-01-21T18:01:29.115Z,5.01
2019-01-21T18:07:24.138Z,5.07
2019-01-21T18:13:19.142Z,4.64
2019-01-21T18:19:14.106Z,5.44
2019-01-21T18:25:09.110Z,4.88
2019-01-21T18:31:04.137Z,5.36
2019-01-21T18:36:59.136Z,4.73
2019-01-21T18:42:54.132Z,3.68
2019-01-21T18:48:49.141Z,4.3
2019-01-21T18:54:44.187Z,4.33
2019-01-21T19:00:39.193Z,4.74
2019-01-21T19:06:34.207Z,5.03
2019-01-21T19:12:29.158Z,5.73
2019-01-21T19:18:24.179Z,6.77
2019-01-21T19:24:19.154Z,5.46
2019-01-21T19:30:14.175Z,4.7
2019-01-21T19:36:09.157Z,4.99
2019-01-21T19:42:04.162Z,5.43
2019-01-21T19:47:59.184Z,6.52
2019-01-21T19:53:54.172Z,6.07
2019-01-21T19:59:49.166Z,23.92
2019-01-21T20:05:44.171Z,6.76
2019-01-21T20:11:39.194Z,5.21
2019-01-21T20:17:34.197Z,6.98
2019-01-21T20:23:29.175Z,4.84
2019-01-21T20:29:24.211Z,8.71
2019-01-21T20:35:19.189Z,9.9
2019-01-21T20:41:14.189Z,9.66
2019-01-21T20:47:09.212Z,9.77
2019-01-21T20:53:04.214Z,7.6
2019-01-21T20:58:59.221Z,6.33
2019-01-21T21:04:54.215Z,8.77
2019-01-21T21:10:49.220Z,9.21
2019-01-21T21:16:44.272Z,7.13
2019-01-21T21:22:39.224Z,6.83
2019-01-21T21:28:34.245Z,5.75
2019-01-21T21:34:29.204Z,5.98
2019-01-21T21:40:24.247Z,5.59
2019-01-21T21:46:19.245Z,5.48
2019-01-21T21:52:14.221Z,3.78
2019-01-21T21:58:09.226Z,4.7
2019-01-21T22:04:04.261Z,4.44
2019-01-21T22:09:59.276Z,5.46
2019-01-21T22:15:54.258Z,4.98
2019-01-21T22:21:49.245Z,4.5
2019-01-21T22:27:44.241Z,5.61
2019-01-21T22:33:39.252Z,5.89
2019-01-21T22:39:34.263Z,5.03
2019-01-21T22:45:29.282Z,6.26
2019-01-21T22:51:24.263Z,5.32
2019-01-21T22:57:19.307Z,4.46
2019-01-21T23:03:14.297Z,6.4
2019-01-21T23:09:09.281Z,5.98
2019-01-21T23:15:04.273Z,5.62
2019-01-21T23:20:59.302Z,5.91
2019-01-21T23:26:54.297Z,6.74
2019-01-21T23:32:49.280Z,6.54
2019-01-21T23:38:44.286Z,6.08
2019-01-21T23:44:39.298Z,6.23
2019-01-21T23:50:34.355Z,5.73
2019-01-21T23:56:29.310Z,7.08
